首页
METAR-TAF:

METAR-TAF

机场 :

空军基地

静浜, 日本

纬度: 34-49N, 经度: 138-18E, 海拔: 7米

当前天气观测

该预报发布于6小时和14分钟前的19:28 UTC
风速1节,风向
温度 21°C
湿度 83%
气压 1013 hPa
能见度10公里或以上
少量云层高于2500英尺
多云层高于12000英尺
多云层高于17000英尺
小雨

METAR: RJNY 191928Z 01001KT 9999 -RA FEW025 BKN120 BKN170 21/18 Q1013 RMK 1CU025 5AC120 6AC170 A2992

时间: 10:42 (01:42 UTC)


TAF: 丢失

超过4000个机场的气象观测和天气预报(METAR&TAF报告)。

可查询的气象台以黄色和红色小点在地图上表示。

将鼠标移到小点上方,可查看气象台名称。

然后点击查看天气观测和预报。

如需切换地图:点击带黑十字的绿色按钮放大地图;点击带横线的绿色按钮缩小地图;或者点击绿色箭头查看邻近地区的地图。


METAR-TAF: